Weather at Eskilstuna Airport

Public forecast

Using degrees Celsius for public forecast. Weather courtesy of forecast.io.

Closest aviation weather report (METAR) to Eskilstuna Airport

Report is more than 6 hours old.

Closest report is Stockholm Västerås Airport, 14.5 nm (26.8 km) N. Retrieved 2022/09/17 18:50 UTC (19 days ago):

ESOW 171850Z AUTO 29004KT 9999 FEW061/// 12/08 Q0997

Closest aviation forecast (TAF) to Eskilstuna Airport

Forecast is more than 12 hours old.

Closest forecast is Stockholm Västerås Airport, 14.5 nm (26.8 km) N. Retrieved 2021-06-01 03:36 UTC (1 year ago):

TAF TAF ESOW 190230Z 1903/1915 27005KT CAVOK